sensor_id;sensor_type;location;lat;lon;timestamp;P1;durP1;ratioP1;P2;durP2;ratioP2
4420;SDS011;11824;51.178;13.546;2022-08-04T00:00:59;6.40;;;5.20;;
4420;SDS011;11824;51.178;13.546;2022-08-04T00:03:32;6.77;;;4.47;;
4420;SDS011;11824;51.178;13.546;2022-08-04T00:06:10;6.80;;;4.53;;
4420;SDS011;11824;51.178;13.546;2022-08-04T00:08:43;6.30;;;4.30;;
4420;SDS011;11824;51.178;13.546;2022-08-04T00:11:19;5.47;;;3.97;;
4420;SDS011;11824;51.178;13.546;2022-08-04T00:13:51;8.10;;;4.60;;
4420;SDS011;11824;51.178;13.546;2022-08-04T00:16:29;11.40;;;5.27;;
4420;SDS011;11824;51.178;13.546;2022-08-04T00:19:03;10.00;;;4.60;;
4420;SDS011;11824;51.178;13.546;2022-08-04T00:21:36;10.67;;;4.00;;
4420;SDS011;11824;51.178;13.546;2022-08-04T00:24:08;6.30;;;4.63;;
4420;SDS011;11824;51.178;13.546;2022-08-04T00:26:39;6.30;;;4.47;;
4420;SDS011;11824;51.178;13.546;2022-08-04T00:29:10;5.47;;;4.43;;
4420;SDS011;11824;51.178;13.546;2022-08-04T00:31:40;7.63;;;4.10;;
4420;SDS011;11824;51.178;13.546;2022-08-04T00:34:23;4.77;;;4.37;;
4420;SDS011;11824;51.178;13.546;2022-08-04T00:36:54;9.40;;;4.80;;
4420;SDS011;11824;51.178;13.546;2022-08-04T00:39:23;5.20;;;4.70;;
4420;SDS011;11824;51.178;13.546;2022-08-04T00:44:53;4.50;;;4.10;;
4420;SDS011;11824;51.178;13.546;2022-08-04T00:47:43;9.20;;;5.00;;
4420;SDS011;11824;51.178;13.546;2022-08-04T00:50:28;8.20;;;4.90;;
4420;SDS011;11824;51.178;13.546;2022-08-04T00:53:10;9.23;;;4.40;;
4420;SDS011;11824;51.178;13.546;2022-08-04T00:55:46;9.00;;;5.37;;
4420;SDS011;11824;51.178;13.546;2022-08-04T01:01:34;6.33;;;4.80;;
4420;SDS011;11824;51.178;13.546;2022-08-04T01:04:14;18.50;;;6.13;;
4420;SDS011;11824;51.178;13.546;2022-08-04T01:06:55;5.57;;;4.97;;
4420;SDS011;11824;51.178;13.546;2022-08-04T01:09:42;9.83;;;4.97;;
4420;SDS011;11824;51.178;13.546;2022-08-04T01:12:26;6.97;;;5.67;;
4420;SDS011;11824;51.178;13.546;2022-08-04T01:15:09;7.47;;;5.17;;
4420;SDS011;11824;51.178;13.546;2022-08-04T01:17:49;6.10;;;5.20;;
4420;SDS011;11824;51.178;13.546;2022-08-04T01:20:28;9.13;;;6.23;;
4420;SDS011;11824;51.178;13.546;2022-08-04T01:26:12;5.70;;;5.07;;
4420;SDS011;11824;51.178;13.546;2022-08-04T01:29:21;7.80;;;6.07;;
4420;SDS011;11824;51.178;13.546;2022-08-04T01:32:10;8.90;;;6.27;;
4420;SDS011;11824;51.178;13.546;2022-08-04T01:34:52;7.57;;;5.13;;
4420;SDS011;11824;51.178;13.546;2022-08-04T01:37:28;8.73;;;6.07;;
4420;SDS011;11824;51.178;13.546;2022-08-04T01:40:14;7.63;;;4.90;;
4420;SDS011;11824;51.178;13.546;2022-08-04T01:42:43;7.07;;;5.73;;
4420;SDS011;11824;51.178;13.546;2022-08-04T01:45:13;14.17;;;6.30;;
4420;SDS011;11824;51.178;13.546;2022-08-04T01:47:42;6.23;;;5.63;;
4420;SDS011;11824;51.178;13.546;2022-08-04T01:50:16;11.40;;;5.70;;
4420;SDS011;11824;51.178;13.546;2022-08-04T01:52:46;5.70;;;5.20;;
4420;SDS011;11824;51.178;13.546;2022-08-04T01:55:16;8.10;;;5.17;;
4420;SDS011;11824;51.178;13.546;2022-08-04T01:57:46;8.23;;;5.20;;
4420;SDS011;11824;51.178;13.546;2022-08-04T02:00:18;15.63;;;6.47;;
4420;SDS011;11824;51.178;13.546;2022-08-04T02:02:49;10.50;;;5.93;;
4420;SDS011;11824;51.178;13.546;2022-08-04T02:05:19;6.43;;;5.83;;
4420;SDS011;11824;51.178;13.546;2022-08-04T02:07:54;16.13;;;6.40;;
4420;SDS011;11824;51.178;13.546;2022-08-04T02:10:34;12.77;;;6.30;;
4420;SDS011;11824;51.178;13.546;2022-08-04T02:13:15;8.70;;;5.57;;
4420;SDS011;11824;51.178;13.546;2022-08-04T02:15:56;15.83;;;5.27;;
4420;SDS011;11824;51.178;13.546;2022-08-04T02:18:29;10.33;;;5.33;;
4420;SDS011;11824;51.178;13.546;2022-08-04T02:21:02;7.00;;;6.30;;
4420;SDS011;11824;51.178;13.546;2022-08-04T02:23:34;7.87;;;6.33;;
4420;SDS011;11824;51.178;13.546;2022-08-04T02:26:04;8.83;;;5.87;;
4420;SDS011;11824;51.178;13.546;2022-08-04T02:28:50;7.40;;;6.33;;
4420;SDS011;11824;51.178;13.546;2022-08-04T02:31:29;6.10;;;5.50;;
4420;SDS011;11824;51.178;13.546;2022-08-04T02:34:00;6.70;;;5.67;;
4420;SDS011;11824;51.178;13.546;2022-08-04T02:36:35;12.30;;;6.30;;
4420;SDS011;11824;51.178;13.546;2022-08-04T02:39:06;10.13;;;6.23;;
4420;SDS011;11824;51.178;13.546;2022-08-04T02:41:35;7.70;;;5.70;;
4420;SDS011;11824;51.178;13.546;2022-08-04T02:44:05;10.33;;;6.60;;
4420;SDS011;11824;51.178;13.546;2022-08-04T02:46:37;13.60;;;6.00;;
4420;SDS011;11824;51.178;13.546;2022-08-04T02:49:08;8.87;;;6.40;;
4420;SDS011;11824;51.178;13.546;2022-08-04T02:51:39;34.23;;;7.97;;
4420;SDS011;11824;51.178;13.546;2022-08-04T02:54:08;10.73;;;6.07;;
4420;SDS011;11824;51.178;13.546;2022-08-04T02:56:38;10.07;;;6.23;;
4420;SDS011;11824;51.178;13.546;2022-08-04T02:59:08;10.53;;;7.50;;
4420;SDS011;11824;51.178;13.546;2022-08-04T03:01:41;9.03;;;6.90;;
4420;SDS011;11824;51.178;13.546;2022-08-04T03:04:26;8.37;;;6.07;;
4420;SDS011;11824;51.178;13.546;2022-08-04T03:07:11;13.23;;;6.20;;
4420;SDS011;11824;51.178;13.546;2022-08-04T03:10:14;8.87;;;5.90;;
4420;SDS011;11824;51.178;13.546;2022-08-04T03:16:28;16.80;;;7.60;;
4420;SDS011;11824;51.178;13.546;2022-08-04T03:25:48;8.37;;;6.80;;
4420;SDS011;11824;51.178;13.546;2022-08-04T03:28:45;11.57;;;7.10;;
4420;SDS011;11824;51.178;13.546;2022-08-04T03:35:00;11.97;;;7.57;;
4420;SDS011;11824;51.178;13.546;2022-08-04T03:38:02;31.93;;;9.30;;
4420;SDS011;11824;51.178;13.546;2022-08-04T03:40:52;19.00;;;8.63;;
4420;SDS011;11824;51.178;13.546;2022-08-04T03:44:17;9.90;;;7.00;;
4420;SDS011;11824;51.178;13.546;2022-08-04T03:47:14;9.87;;;7.63;;
4420;SDS011;11824;51.178;13.546;2022-08-04T03:50:14;17.37;;;8.27;;
4420;SDS011;11824;51.178;13.546;2022-08-04T04:02:21;14.03;;;7.30;;
4420;SDS011;11824;51.178;13.546;2022-08-04T04:05:19;20.80;;;7.60;;
4420;SDS011;11824;51.178;13.546;2022-08-04T04:11:49;18.53;;;8.10;;
4420;SDS011;11824;51.178;13.546;2022-08-04T04:14:33;10.63;;;7.77;;
4420;SDS011;11824;51.178;13.546;2022-08-04T04:17:29;13.33;;;6.60;;
4420;SDS011;11824;51.178;13.546;2022-08-04T04:20:31;7.97;;;7.17;;
4420;SDS011;11824;51.178;13.546;2022-08-04T04:23:25;17.27;;;8.43;;
4420;SDS011;11824;51.178;13.546;2022-08-04T04:26:15;32.67;;;8.90;;
4420;SDS011;11824;51.178;13.546;2022-08-04T04:29:10;9.37;;;6.23;;
4420;SDS011;11824;51.178;13.546;2022-08-04T04:32:04;9.10;;;7.20;;
4420;SDS011;11824;51.178;13.546;2022-08-04T04:34:47;12.40;;;7.70;;
4420;SDS011;11824;51.178;13.546;2022-08-04T04:37:29;20.40;;;7.50;;
4420;SDS011;11824;51.178;13.546;2022-08-04T04:40:19;26.10;;;8.30;;
4420;SDS011;11824;51.178;13.546;2022-08-04T04:43:04;29.33;;;9.07;;
4420;SDS011;11824;51.178;13.546;2022-08-04T04:45:48;24.33;;;8.10;;
4420;SDS011;11824;51.178;13.546;2022-08-04T04:48:28;19.23;;;7.40;;
4420;SDS011;11824;51.178;13.546;2022-08-04T04:51:05;19.30;;;8.37;;
4420;SDS011;11824;51.178;13.546;2022-08-04T04:53:44;43.20;;;8.50;;
4420;SDS011;11824;51.178;13.546;2022-08-04T04:56:26;14.43;;;7.13;;
4420;SDS011;11824;51.178;13.546;2022-08-04T04:58:59;34.63;;;8.83;;
4420;SDS011;11824;51.178;13.546;2022-08-04T05:01:41;13.90;;;7.33;;
4420;SDS011;11824;51.178;13.546;2022-08-04T05:04:28;12.67;;;7.40;;
4420;SDS011;11824;51.178;13.546;2022-08-04T05:10:59;8.30;;;5.53;;
4420;SDS011;11824;51.178;13.546;2022-08-04T05:13:41;13.10;;;5.80;;
4420;SDS011;11824;51.178;13.546;2022-08-04T05:16:32;6.33;;;5.20;;
4420;SDS011;11824;51.178;13.546;2022-08-04T05:19:06;8.70;;;4.90;;
4420;SDS011;11824;51.178;13.546;2022-08-04T05:21:46;9.53;;;5.40;;
4420;SDS011;11824;51.178;13.546;2022-08-04T05:24:16;5.03;;;4.63;;
4420;SDS011;11824;51.178;13.546;2022-08-04T05:26:49;13.13;;;5.30;;
4420;SDS011;11824;51.178;13.546;2022-08-04T05:29:23;4.50;;;4.10;;
4420;SDS011;11824;51.178;13.546;2022-08-04T05:31:57;5.03;;;4.60;;
4420;SDS011;11824;51.178;13.546;2022-08-04T05:34:29;6.03;;;4.60;;
4420;SDS011;11824;51.178;13.546;2022-08-04T05:37:02;7.40;;;5.67;;
4420;SDS011;11824;51.178;13.546;2022-08-04T05:39:36;13.83;;;5.17;;
4420;SDS011;11824;51.178;13.546;2022-08-04T05:42:21;6.03;;;4.43;;
4420;SDS011;11824;51.178;13.546;2022-08-04T05:44:51;7.90;;;4.47;;
4420;SDS011;11824;51.178;13.546;2022-08-04T05:47:20;6.50;;;5.23;;
4420;SDS011;11824;51.178;13.546;2022-08-04T05:49:50;15.67;;;4.50;;
4420;SDS011;11824;51.178;13.546;2022-08-04T05:52:27;8.23;;;4.70;;
4420;SDS011;11824;51.178;13.546;2022-08-04T05:54:57;10.17;;;4.33;;
4420;SDS011;11824;51.178;13.546;2022-08-04T05:57:28;7.23;;;4.37;;
4420;SDS011;11824;51.178;13.546;2022-08-04T05:59:58;6.80;;;4.43;;
4420;SDS011;11824;51.178;13.546;2022-08-04T06:02:48;9.13;;;3.73;;
4420;SDS011;11824;51.178;13.546;2022-08-04T06:05:18;4.73;;;4.13;;
4420;SDS011;11824;51.178;13.546;2022-08-04T06:07:48;9.70;;;4.60;;
4420;SDS011;11824;51.178;13.546;2022-08-04T06:10:37;12.10;;;4.20;;
4420;SDS011;11824;51.178;13.546;2022-08-04T06:13:09;6.30;;;4.17;;
4420;SDS011;11824;51.178;13.546;2022-08-04T06:15:59;11.57;;;4.40;;
4420;SDS011;11824;51.178;13.546;2022-08-04T06:18:31;4.10;;;3.70;;
4420;SDS011;11824;51.178;13.546;2022-08-04T06:21:23;6.73;;;4.33;;
4420;SDS011;11824;51.178;13.546;2022-08-04T06:23:54;6.33;;;3.80;;
4420;SDS011;11824;51.178;13.546;2022-08-04T06:26:29;10.60;;;4.70;;
4420;SDS011;11824;51.178;13.546;2022-08-04T06:29:02;13.03;;;4.27;;
4420;SDS011;11824;51.178;13.546;2022-08-04T06:31:36;17.10;;;4.33;;
4420;SDS011;11824;51.178;13.546;2022-08-04T06:34:32;4.70;;;4.30;;
4420;SDS011;11824;51.178;13.546;2022-08-04T06:37:02;6.93;;;4.03;;
4420;SDS011;11824;51.178;13.546;2022-08-04T06:39:32;7.83;;;3.83;;
4420;SDS011;11824;51.178;13.546;2022-08-04T06:42:02;11.73;;;4.00;;
4420;SDS011;11824;51.178;13.546;2022-08-04T06:44:49;10.23;;;4.33;;
4420;SDS011;11824;51.178;13.546;2022-08-04T06:47:20;7.13;;;4.00;;
4420;SDS011;11824;51.178;13.546;2022-08-04T06:49:50;4.10;;;3.20;;
4420;SDS011;11824;51.178;13.546;2022-08-04T06:52:39;26.47;;;4.90;;
4420;SDS011;11824;51.178;13.546;2022-08-04T06:55:10;16.30;;;3.80;;
4420;SDS011;11824;51.178;13.546;2022-08-04T06:57:39;11.07;;;4.37;;
4420;SDS011;11824;51.178;13.546;2022-08-04T07:00:11;4.50;;;3.70;;
4420;SDS011;11824;51.178;13.546;2022-08-04T07:02:43;5.63;;;3.10;;
4420;SDS011;11824;51.178;13.546;2022-08-04T07:05:14;4.90;;;4.13;;
4420;SDS011;11824;51.178;13.546;2022-08-04T07:07:44;5.60;;;3.83;;
4420;SDS011;11824;51.178;13.546;2022-08-04T07:10:23;14.27;;;3.80;;
4420;SDS011;11824;51.178;13.546;2022-08-04T07:12:53;9.13;;;3.33;;
4420;SDS011;11824;51.178;13.546;2022-08-04T07:15:24;5.10;;;3.20;;
4420;SDS011;11824;51.178;13.546;2022-08-04T07:17:54;20.17;;;4.37;;
4420;SDS011;11824;51.178;13.546;2022-08-04T07:20:25;13.97;;;3.93;;
4420;SDS011;11824;51.178;13.546;2022-08-04T07:23:01;10.30;;;4.43;;
4420;SDS011;11824;51.178;13.546;2022-08-04T07:25:30;3.90;;;3.30;;
4420;SDS011;11824;51.178;13.546;2022-08-04T07:28:22;7.40;;;4.10;;
4420;SDS011;11824;51.178;13.546;2022-08-04T07:30:53;13.40;;;4.40;;
4420;SDS011;11824;51.178;13.546;2022-08-04T07:33:23;7.00;;;4.77;;
4420;SDS011;11824;51.178;13.546;2022-08-04T07:35:52;7.50;;;3.50;;
4420;SDS011;11824;51.178;13.546;2022-08-04T07:38:36;9.80;;;3.87;;
4420;SDS011;11824;51.178;13.546;2022-08-04T07:41:18;12.87;;;4.03;;
4420;SDS011;11824;51.178;13.546;2022-08-04T07:44:04;4.93;;;3.90;;
4420;SDS011;11824;51.178;13.546;2022-08-04T07:46:35;6.80;;;3.30;;
4420;SDS011;11824;51.178;13.546;2022-08-04T07:49:05;4.43;;;3.00;;
4420;SDS011;11824;51.178;13.546;2022-08-04T07:51:34;5.30;;;3.47;;
4420;SDS011;11824;51.178;13.546;2022-08-04T07:54:04;5.30;;;3.77;;
4420;SDS011;11824;51.178;13.546;2022-08-04T07:56:37;6.30;;;3.60;;
4420;SDS011;11824;51.178;13.546;2022-08-04T07:59:06;5.33;;;2.70;;
4420;SDS011;11824;51.178;13.546;2022-08-04T08:01:37;8.90;;;3.90;;
4420;SDS011;11824;51.178;13.546;2022-08-04T08:04:06;6.33;;;3.30;;
4420;SDS011;11824;51.178;13.546;2022-08-04T08:06:37;9.53;;;3.30;;
4420;SDS011;11824;51.178;13.546;2022-08-04T08:09:09;5.67;;;3.50;;
4420;SDS011;11824;51.178;13.546;2022-08-04T08:11:40;9.00;;;3.40;;
4420;SDS011;11824;51.178;13.546;2022-08-04T08:14:29;12.80;;;4.17;;
4420;SDS011;11824;51.178;13.546;2022-08-04T08:17:01;11.00;;;3.80;;
4420;SDS011;11824;51.178;13.546;2022-08-04T08:19:31;8.50;;;3.47;;
4420;SDS011;11824;51.178;13.546;2022-08-04T08:22:00;4.03;;;3.47;;
4420;SDS011;11824;51.178;13.546;2022-08-04T08:24:30;4.50;;;2.83;;
4420;SDS011;11824;51.178;13.546;2022-08-04T08:27:01;13.50;;;3.43;;
4420;SDS011;11824;51.178;13.546;2022-08-04T08:29:32;5.90;;;3.73;;
4420;SDS011;11824;51.178;13.546;2022-08-04T08:32:03;3.90;;;3.37;;
4420;SDS011;11824;51.178;13.546;2022-08-04T08:34:34;4.77;;;3.30;;
4420;SDS011;11824;51.178;13.546;2022-08-04T08:37:06;6.10;;;3.73;;
4420;SDS011;11824;51.178;13.546;2022-08-04T08:39:40;5.20;;;2.90;;
4420;SDS011;11824;51.178;13.546;2022-08-04T08:45:20;10.37;;;3.90;;
4420;SDS011;11824;51.178;13.546;2022-08-04T08:48:14;3.10;;;2.40;;
4420;SDS011;11824;51.178;13.546;2022-08-04T08:51:05;6.33;;;2.80;;
4420;SDS011;11824;51.178;13.546;2022-08-04T08:53:58;4.63;;;2.50;;
4420;SDS011;11824;51.178;13.546;2022-08-04T08:57:00;10.47;;;3.30;;
4420;SDS011;11824;51.178;13.546;2022-08-04T08:59:49;4.23;;;2.80;;
4420;SDS011;11824;51.178;13.546;2022-08-04T09:02:42;9.63;;;2.80;;
4420;SDS011;11824;51.178;13.546;2022-08-04T09:05:42;6.73;;;3.17;;
4420;SDS011;11824;51.178;13.546;2022-08-04T09:11:55;6.27;;;2.83;;
4420;SDS011;11824;51.178;13.546;2022-08-04T09:14:34;2.93;;;2.53;;
4420;SDS011;11824;51.178;13.546;2022-08-04T09:17:12;7.57;;;2.90;;
4420;SDS011;11824;51.178;13.546;2022-08-04T09:19:50;4.20;;;2.90;;
4420;SDS011;11824;51.178;13.546;2022-08-04T09:22:27;3.90;;;2.80;;
4420;SDS011;11824;51.178;13.546;2022-08-04T09:25:06;3.13;;;2.70;;
4420;SDS011;11824;51.178;13.546;2022-08-04T09:27:42;14.13;;;3.03;;
4420;SDS011;11824;51.178;13.546;2022-08-04T09:30:16;3.17;;;2.87;;
4420;SDS011;11824;51.178;13.546;2022-08-04T09:32:51;22.77;;;5.80;;
4420;SDS011;11824;51.178;13.546;2022-08-04T09:35:31;3.03;;;2.73;;
4420;SDS011;11824;51.178;13.546;2022-08-04T09:38:14;4.07;;;2.60;;
4420;SDS011;11824;51.178;13.546;2022-08-04T09:40:47;3.30;;;2.30;;
4420;SDS011;11824;51.178;13.546;2022-08-04T09:43:27;11.50;;;2.77;;
4420;SDS011;11824;51.178;13.546;2022-08-04T09:46:29;4.37;;;2.33;;
4420;SDS011;11824;51.178;13.546;2022-08-04T09:49:06;3.13;;;2.30;;
4420;SDS011;11824;51.178;13.546;2022-08-04T09:51:44;2.80;;;2.60;;
4420;SDS011;11824;51.178;13.546;2022-08-04T09:54:27;25.07;;;3.23;;
4420;SDS011;11824;51.178;13.546;2022-08-04T09:57:11;7.53;;;2.20;;
4420;SDS011;11824;51.178;13.546;2022-08-04T09:59:56;3.67;;;2.63;;
4420;SDS011;11824;51.178;13.546;2022-08-04T10:02:29;2.63;;;1.93;;
4420;SDS011;11824;51.178;13.546;2022-08-04T10:05:01;3.50;;;2.17;;
4420;SDS011;11824;51.178;13.546;2022-08-04T10:07:56;3.77;;;2.67;;
4420;SDS011;11824;51.178;13.546;2022-08-04T10:10:46;4.60;;;2.60;;
4420;SDS011;11824;51.178;13.546;2022-08-04T10:13:25;3.17;;;2.10;;
4420;SDS011;11824;51.178;13.546;2022-08-04T10:16:09;3.00;;;2.23;;
4420;SDS011;11824;51.178;13.546;2022-08-04T10:18:56;6.23;;;1.87;;
4420;SDS011;11824;51.178;13.546;2022-08-04T10:21:35;3.67;;;2.30;;
4420;SDS011;11824;51.178;13.546;2022-08-04T10:24:34;3.63;;;2.57;;
4420;SDS011;11824;51.178;13.546;2022-08-04T10:27:11;3.30;;;2.07;;
4420;SDS011;11824;51.178;13.546;2022-08-04T10:29:47;2.17;;;1.90;;
4420;SDS011;11824;51.178;13.546;2022-08-04T10:32:16;7.93;;;2.40;;
4420;SDS011;11824;51.178;13.546;2022-08-04T10:34:53;5.17;;;2.27;;
4420;SDS011;11824;51.178;13.546;2022-08-04T10:37:35;5.83;;;2.40;;
4420;SDS011;11824;51.178;13.546;2022-08-04T10:40:28;4.30;;;2.73;;
4420;SDS011;11824;51.178;13.546;2022-08-04T10:43:06;2.83;;;2.13;;
4420;SDS011;11824;51.178;13.546;2022-08-04T10:45:48;4.27;;;2.53;;
4420;SDS011;11824;51.178;13.546;2022-08-04T10:48:25;2.77;;;2.30;;
4420;SDS011;11824;51.178;13.546;2022-08-04T10:51:08;8.60;;;2.40;;
4420;SDS011;11824;51.178;13.546;2022-08-04T10:53:45;3.97;;;2.23;;
4420;SDS011;11824;51.178;13.546;2022-08-04T10:56:21;3.10;;;2.10;;
4420;SDS011;11824;51.178;13.546;2022-08-04T10:58:59;3.10;;;2.40;;
4420;SDS011;11824;51.178;13.546;2022-08-04T11:01:35;3.23;;;2.27;;
4420;SDS011;11824;51.178;13.546;2022-08-04T11:04:28;3.40;;;2.67;;
4420;SDS011;11824;51.178;13.546;2022-08-04T11:07:14;3.20;;;2.07;;
4420;SDS011;11824;51.178;13.546;2022-08-04T11:09:44;2.47;;;2.20;;
4420;SDS011;11824;51.178;13.546;2022-08-04T11:12:15;2.77;;;2.57;;
4420;SDS011;11824;51.178;13.546;2022-08-04T11:14:50;3.97;;;2.50;;
4420;SDS011;11824;51.178;13.546;2022-08-04T11:17:23;3.70;;;2.00;;
4420;SDS011;11824;51.178;13.546;2022-08-04T11:20:01;4.20;;;2.63;;
4420;SDS011;11824;51.178;13.546;2022-08-04T11:23:01;4.13;;;2.27;;
4420;SDS011;11824;51.178;13.546;2022-08-04T11:25:40;2.60;;;2.40;;
4420;SDS011;11824;51.178;13.546;2022-08-04T11:28:21;3.77;;;2.80;;
4420;SDS011;11824;51.178;13.546;2022-08-04T11:31:03;6.30;;;2.47;;
4420;SDS011;11824;51.178;13.546;2022-08-04T11:33:35;3.33;;;2.73;;
4420;SDS011;11824;51.178;13.546;2022-08-04T11:36:13;4.20;;;2.70;;
4420;SDS011;11824;51.178;13.546;2022-08-04T11:38:48;2.60;;;2.20;;
4420;SDS011;11824;51.178;13.546;2022-08-04T11:41:29;4.27;;;2.57;;
4420;SDS011;11824;51.178;13.546;2022-08-04T11:44:05;3.33;;;2.90;;
4420;SDS011;11824;51.178;13.546;2022-08-04T11:46:40;6.00;;;2.00;;
4420;SDS011;11824;51.178;13.546;2022-08-04T11:49:15;6.20;;;2.10;;
4420;SDS011;11824;51.178;13.546;2022-08-04T11:51:52;6.33;;;2.50;;
4420;SDS011;11824;51.178;13.546;2022-08-04T11:54:24;8.27;;;2.93;;
4420;SDS011;11824;51.178;13.546;2022-08-04T11:56:54;3.63;;;3.10;;
4420;SDS011;11824;51.178;13.546;2022-08-04T11:59:22;7.43;;;2.37;;
4420;SDS011;11824;51.178;13.546;2022-08-04T12:02:00;2.73;;;2.37;;
4420;SDS011;11824;51.178;13.546;2022-08-04T12:04:49;2.63;;;2.40;;
4420;SDS011;11824;51.178;13.546;2022-08-04T12:07:26;6.40;;;2.57;;
4420;SDS011;11824;51.178;13.546;2022-08-04T12:10:18;5.50;;;2.80;;
4420;SDS011;11824;51.178;13.546;2022-08-04T12:13:09;9.77;;;2.43;;
4420;SDS011;11824;51.178;13.546;2022-08-04T12:15:48;3.43;;;2.50;;
4420;SDS011;11824;51.178;13.546;2022-08-04T12:18:37;4.07;;;3.07;;
4420;SDS011;11824;51.178;13.546;2022-08-04T12:21:10;3.20;;;2.17;;
4420;SDS011;11824;51.178;13.546;2022-08-04T12:23:47;7.77;;;3.27;;
4420;SDS011;11824;51.178;13.546;2022-08-04T12:26:27;3.90;;;2.80;;
4420;SDS011;11824;51.178;13.546;2022-08-04T12:28:59;5.97;;;2.30;;
4420;SDS011;11824;51.178;13.546;2022-08-04T12:31:39;3.00;;;2.20;;
4420;SDS011;11824;51.178;13.546;2022-08-04T12:34:13;4.13;;;2.93;;
4420;SDS011;11824;51.178;13.546;2022-08-04T12:36:57;3.53;;;2.30;;
4420;SDS011;11824;51.178;13.546;2022-08-04T12:39:31;3.40;;;2.93;;
4420;SDS011;11824;51.178;13.546;2022-08-04T12:42:23;2.80;;;2.60;;
4420;SDS011;11824;51.178;13.546;2022-08-04T12:45:02;5.67;;;2.90;;
4420;SDS011;11824;51.178;13.546;2022-08-04T12:47:33;15.13;;;3.13;;
4420;SDS011;11824;51.178;13.546;2022-08-04T12:50:06;9.47;;;3.00;;
4420;SDS011;11824;51.178;13.546;2022-08-04T12:52:40;2.53;;;2.30;;
4420;SDS011;11824;51.178;13.546;2022-08-04T12:55:30;9.00;;;3.10;;
4420;SDS011;11824;51.178;13.546;2022-08-04T12:58:02;3.50;;;2.97;;
4420;SDS011;11824;51.178;13.546;2022-08-04T13:01:02;9.50;;;3.10;;
4420;SDS011;11824;51.178;13.546;2022-08-04T13:03:54;3.97;;;2.53;;
4420;SDS011;11824;51.178;13.546;2022-08-04T13:06:26;4.27;;;3.03;;
4420;SDS011;11824;51.178;13.546;2022-08-04T13:09:01;4.57;;;2.70;;
4420;SDS011;11824;51.178;13.546;2022-08-04T13:11:35;3.20;;;2.90;;
4420;SDS011;11824;51.178;13.546;2022-08-04T13:14:09;6.43;;;2.80;;
4420;SDS011;11824;51.178;13.546;2022-08-04T13:16:55;10.43;;;3.20;;
4420;SDS011;11824;51.178;13.546;2022-08-04T13:19:25;3.10;;;2.63;;
4420;SDS011;11824;51.178;13.546;2022-08-04T13:21:57;10.83;;;2.73;;
4420;SDS011;11824;51.178;13.546;2022-08-04T13:24:28;3.17;;;2.93;;
4420;SDS011;11824;51.178;13.546;2022-08-04T13:27:20;5.63;;;2.90;;
4420;SDS011;11824;51.178;13.546;2022-08-04T13:29:51;5.03;;;2.70;;
4420;SDS011;11824;51.178;13.546;2022-08-04T13:32:28;2.93;;;2.47;;
4420;SDS011;11824;51.178;13.546;2022-08-04T13:34:59;5.73;;;3.00;;
4420;SDS011;11824;51.178;13.546;2022-08-04T13:37:32;7.60;;;3.10;;
4420;SDS011;11824;51.178;13.546;2022-08-04T13:40:03;3.33;;;2.50;;
4420;SDS011;11824;51.178;13.546;2022-08-04T13:42:36;3.23;;;2.93;;
4420;SDS011;11824;51.178;13.546;2022-08-04T13:45:07;6.13;;;3.20;;
4420;SDS011;11824;51.178;13.546;2022-08-04T13:47:36;6.10;;;2.40;;
4420;SDS011;11824;51.178;13.546;2022-08-04T13:50:07;2.90;;;2.70;;
4420;SDS011;11824;51.178;13.546;2022-08-04T13:52:49;3.93;;;3.20;;
4420;SDS011;11824;51.178;13.546;2022-08-04T13:55:20;4.97;;;2.60;;
4420;SDS011;11824;51.178;13.546;2022-08-04T13:57:58;10.33;;;3.53;;
4420;SDS011;11824;51.178;13.546;2022-08-04T14:00:44;3.57;;;2.90;;
4420;SDS011;11824;51.178;13.546;2022-08-04T14:03:21;2.83;;;2.63;;
4420;SDS011;11824;51.178;13.546;2022-08-04T14:08:58;4.23;;;2.70;;
4420;SDS011;11824;51.178;13.546;2022-08-04T14:11:39;9.77;;;3.80;;
4420;SDS011;11824;51.178;13.546;2022-08-04T14:14:30;8.10;;;2.60;;
4420;SDS011;11824;51.178;13.546;2022-08-04T14:17:06;5.67;;;3.10;;
4420;SDS011;11824;51.178;13.546;2022-08-04T14:19:47;2.70;;;2.50;;
4420;SDS011;11824;51.178;13.546;2022-08-04T14:22:33;11.20;;;4.00;;
4420;SDS011;11824;51.178;13.546;2022-08-04T14:25:08;4.20;;;2.60;;
4420;SDS011;11824;51.178;13.546;2022-08-04T14:27:44;4.43;;;2.70;;
4420;SDS011;11824;51.178;13.546;2022-08-04T14:30:21;2.90;;;2.57;;
4420;SDS011;11824;51.178;13.546;2022-08-04T14:32:56;3.20;;;3.00;;
4420;SDS011;11824;51.178;13.546;2022-08-04T14:35:55;9.30;;;3.10;;
4420;SDS011;11824;51.178;13.546;2022-08-04T14:38:40;2.50;;;2.27;;
4420;SDS011;11824;51.178;13.546;2022-08-04T14:41:12;4.33;;;2.67;;
4420;SDS011;11824;51.178;13.546;2022-08-04T14:43:43;3.30;;;3.00;;
4420;SDS011;11824;51.178;13.546;2022-08-04T14:46:13;2.70;;;2.50;;
4420;SDS011;11824;51.178;13.546;2022-08-04T14:49:02;3.30;;;2.77;;
4420;SDS011;11824;51.178;13.546;2022-08-04T14:51:36;5.33;;;2.97;;
4420;SDS011;11824;51.178;13.546;2022-08-04T14:54:12;9.43;;;2.70;;
4420;SDS011;11824;51.178;13.546;2022-08-04T14:56:51;5.87;;;2.80;;
4420;SDS011;11824;51.178;13.546;2022-08-04T14:59:21;2.70;;;2.50;;
4420;SDS011;11824;51.178;13.546;2022-08-04T15:01:51;8.53;;;3.30;;
4420;SDS011;11824;51.178;13.546;2022-08-04T15:04:26;3.77;;;3.10;;
4420;SDS011;11824;51.178;13.546;2022-08-04T15:06:56;3.50;;;2.90;;
4420;SDS011;11824;51.178;13.546;2022-08-04T15:09:30;3.70;;;3.33;;
4420;SDS011;11824;51.178;13.546;2022-08-04T15:12:00;4.40;;;3.20;;
4420;SDS011;11824;51.178;13.546;2022-08-04T15:14:31;3.40;;;2.90;;
4420;SDS011;11824;51.178;13.546;2022-08-04T15:17:03;7.57;;;3.10;;
4420;SDS011;11824;51.178;13.546;2022-08-04T15:19:54;2.63;;;2.43;;
4420;SDS011;11824;51.178;13.546;2022-08-04T15:22:24;3.57;;;2.50;;
4420;SDS011;11824;51.178;13.546;2022-08-04T15:24:53;5.57;;;2.67;;
4420;SDS011;11824;51.178;13.546;2022-08-04T15:27:26;3.30;;;3.00;;
4420;SDS011;11824;51.178;13.546;2022-08-04T15:29:58;2.67;;;2.40;;
4420;SDS011;11824;51.178;13.546;2022-08-04T15:32:33;3.80;;;2.90;;
4420;SDS011;11824;51.178;13.546;2022-08-04T15:35:04;4.93;;;3.40;;
4420;SDS011;11824;51.178;13.546;2022-08-04T15:37:51;3.20;;;2.90;;
4420;SDS011;11824;51.178;13.546;2022-08-04T15:40:29;8.53;;;3.80;;
4420;SDS011;11824;51.178;13.546;2022-08-04T15:43:09;8.87;;;2.97;;
4420;SDS011;11824;51.178;13.546;2022-08-04T15:45:52;3.13;;;2.83;;
4420;SDS011;11824;51.178;13.546;2022-08-04T15:48:43;5.43;;;3.20;;
4420;SDS011;11824;51.178;13.546;2022-08-04T15:51:15;6.23;;;3.10;;
4420;SDS011;11824;51.178;13.546;2022-08-04T15:56:58;9.90;;;3.63;;
4420;SDS011;11824;51.178;13.546;2022-08-04T16:02:35;3.00;;;2.70;;
4420;SDS011;11824;51.178;13.546;2022-08-04T16:08:07;3.27;;;2.97;;
4420;SDS011;11824;51.178;13.546;2022-08-04T16:10:38;7.23;;;3.03;;
4420;SDS011;11824;51.178;13.546;2022-08-04T16:13:08;3.83;;;2.80;;
4420;SDS011;11824;51.178;13.546;2022-08-04T16:15:41;3.63;;;3.33;;
4420;SDS011;11824;51.178;13.546;2022-08-04T16:18:13;7.73;;;3.20;;
4420;SDS011;11824;51.178;13.546;2022-08-04T16:20:53;3.43;;;3.13;;
4420;SDS011;11824;51.178;13.546;2022-08-04T16:26:43;3.47;;;3.17;;
4420;SDS011;11824;51.178;13.546;2022-08-04T16:29:35;3.07;;;2.73;;
4420;SDS011;11824;51.178;13.546;2022-08-04T16:32:10;9.23;;;2.80;;
4420;SDS011;11824;51.178;13.546;2022-08-04T16:34:41;6.27;;;3.23;;
4420;SDS011;11824;51.178;13.546;2022-08-04T16:37:22;3.50;;;2.97;;
4420;SDS011;11824;51.178;13.546;2022-08-04T16:43:02;7.93;;;3.37;;
4420;SDS011;11824;51.178;13.546;2022-08-04T16:48:26;3.20;;;2.90;;
4420;SDS011;11824;51.178;13.546;2022-08-04T16:51:00;2.93;;;2.70;;
4420;SDS011;11824;51.178;13.546;2022-08-04T16:53:36;2.90;;;2.70;;
4420;SDS011;11824;51.178;13.546;2022-08-04T16:56:20;7.40;;;3.13;;
4420;SDS011;11824;51.178;13.546;2022-08-04T16:59:04;2.90;;;2.70;;